Time;durP1;ratioP1;P1;durP2;ratioP2;P2;SDS_P1;SDS_P2;PMS_P1;PMS_P2;Temp;Humidity;BMP_temperature;BMP_pressure;BME280_temperature;BME280_humidity;BME280_pressure;Samples;Min_cycle;Max_cycle;Signal;HPM_P1;HPM_P2
2023/03/21 00:01:52;;;;;;;;;12.25;10.75;;;;;8.27;100.00;98401.09;4898729;28;108819;-69
2023/03/21 00:04:21;;;;;;;;;17.75;15.75;;;;;8.28;100.00;98399.22;4901858;28;102042;-69
2023/03/21 00:06:48;;;;;;;;;13.25;11.50;;;;;8.29;100.00;98403.56;4896615;28;102373;-70
2023/03/21 00:09:15;;;;;;;;;19.25;16.25;;;;;8.27;100.00;98394.84;4894855;28;102473;-69
2023/03/21 00:11:42;;;;;;;;;14.25;12.00;;;;;8.23;100.00;98397.09;4890182;28;104112;-69
2023/03/21 00:14:13;;;;;;;;;8.50;7.75;;;;;8.26;100.00;98401.25;4889985;28;103112;-69
2023/03/21 00:16:44;;;;;;;;;8.00;8.00;;;;;8.27;100.00;98398.38;4900620;28;102449;-68
2023/03/21 00:19:13;;;;;;;;;14.25;13.75;;;;;8.29;100.00;98406.25;4895087;28;102642;-69
2023/03/21 00:21:41;;;;;;;;;12.00;11.50;;;;;8.29;100.00;98398.19;4893800;28;103801;-69
2023/03/21 00:24:28;;;;;;;;;14.25;13.25;;;;;8.29;100.00;98393.66;4894851;28;102362;-69
2023/03/21 00:26:55;;;;;;;;;7.50;6.75;;;;;8.30;100.00;98391.81;4895579;28;102297;-69
2023/03/21 00:29:41;;;;;;;;;11.00;11.00;;;;;8.30;100.00;98389.13;4903518;28;102447;-69
2023/03/21 00:32:08;;;;;;;;;16.75;15.25;;;;;8.30;100.00;98389.94;4898584;28;103985;-69
2023/03/21 00:34:37;;;;;;;;;20.50;18.25;;;;;8.30;100.00;98389.13;4898737;28;102557;-69
2023/03/21 00:37:20;;;;;;;;;19.00;14.75;;;;;8.31;100.00;98391.63;4897048;28;102496;-69
2023/03/21 00:39:48;;;;;;;;;14.00;11.25;;;;;8.33;100.00;98386.06;4898550;28;102075;-70
2023/03/21 00:42:15;;;;;;;;;14.00;12.00;;;;;8.34;100.00;98385.84;4897442;28;103070;-69
2023/03/21 00:44:43;;;;;;;;;14.75;13.75;;;;;8.35;100.00;98381.28;4896548;28;102590;-69
2023/03/21 00:47:11;;;;;;;;;17.00;14.60;;;;;8.33;100.00;98386.84;4547424;28;10007949;-69
2023/03/21 00:49:39;;;;;;;;;12.00;11.25;;;;;8.22;100.00;98364.97;4894404;28;102645;-69
2023/03/21 00:52:08;;;;;;;;;18.25;13.25;;;;;8.33;100.00;98386.06;4897419;28;104168;-69
2023/03/21 00:54:48;;;;;;;;;15.50;14.00;;;;;8.25;100.00;98362.72;4891920;28;109085;-70
2023/03/21 00:57:15;;;;;;;;;11.00;9.25;;;;;8.00;100.00;98323.75;4896662;28;102458;-69
2023/03/21 00:59:43;;;;;;;;;8.75;7.50;;;;;8.35;100.00;98386.69;4905241;28;101877;-69
2023/03/21 01:02:13;;;;;;;;;14.75;11.50;;;;;8.35;100.00;98381.28;4899906;28;103490;-70
2023/03/21 01:04:41;;;;;;;;;13.50;13.50;;;;;8.37;100.00;98384.66;4889779;28;108568;-69
2023/03/21 01:07:08;;;;;;;;;14.25;12.25;;;;;8.34;100.00;98385.84;4888218;28;101994;-69
2023/03/21 01:09:47;;;;;;;;;39.75;35.00;;;;;8.24;100.00;98387.19;4897250;28;102065;-69
2023/03/21 01:12:40;;;;;;;;;52.50;41.00;;;;;8.18;100.00;98396.84;4891850;28;102441;-69
2023/03/21 01:15:36;;;;;;;;;66.50;50.25;;;;;8.12;100.00;98394.91;4889116;28;107390;-68
2023/03/21 01:18:33;;;;;;;;;55.50;42.50;;;;;8.15;100.00;98396.41;4894311;28;102453;-69
2023/03/21 01:21:25;;;;;;;;;53.75;43.50;;;;;8.09;100.00;98392.59;4890663;28;102442;-69
2023/03/21 01:24:00;;;;;;;;;53.75;44.00;;;;;8.01;100.00;98385.44;4893511;28;103515;-69
2023/03/21 01:26:28;;;;;;;;;46.25;39.00;;;;;8.06;100.00;98393.78;4885061;28;104333;-68
2023/03/21 01:28:55;;;;;;;;;58.50;44.50;;;;;7.94;100.00;98392.63;4896934;28;102657;-69
2023/03/21 01:31:22;;;;;;;;;55.25;44.50;;;;;7.96;100.00;98392.44;4893564;28;102320;-69
2023/03/21 01:33:49;;;;;;;;;51.75;40.75;;;;;7.77;100.00;98371.50;4894133;28;102851;-68
2023/03/21 01:36:20;;;;;;;;;33.00;27.50;;;;;7.97;100.00;98384.16;4877159;28;104904;-69
2023/03/21 01:38:50;;;;;;;;;31.25;27.50;;;;;8.02;100.00;98387.13;4857780;28;101986;-69
2023/03/21 01:41:30;;;;;;;;;47.50;38.00;;;;;7.86;100.00;98378.44;4856143;28;102722;-69
2023/03/21 01:44:17;;;;;;;;;44.25;37.00;;;;;7.88;100.00;98384.50;4848132;28;103918;-69
2023/03/21 01:46:51;;;;;;;;;40.00;35.50;;;;;7.87;100.00;98377.44;4861319;28;104123;-69
2023/03/21 01:49:44;;;;;;;;;52.75;40.00;;;;;7.77;100.00;98380.44;4858064;28;101901;-69
2023/03/21 01:52:19;;;;;;;;;35.75;31.50;;;;;7.85;100.00;98374.09;4854481;28;102485;-69
2023/03/21 01:55:05;;;;;;;;;51.25;37.75;;;;;7.77;100.00;98383.13;4848500;28;103797;-69
2023/03/21 01:57:40;;;;;;;;;33.75;27.25;;;;;7.82;100.00;98378.00;4857404;28;103987;-69
2023/03/21 02:00:22;;;;;;;;;33.00;23.50;;;;;7.90;100.00;98377.88;4857280;28;102365;-69
2023/03/21 02:02:50;;;;;;;;;27.00;22.00;;;;;7.92;100.00;98375.84;4839969;28;102498;-68
2023/03/21 02:05:25;;;;;;;;;17.00;15.50;;;;;7.95;100.00;98380.84;4834305;28;102126;-68
2023/03/21 02:07:52;;;;;;;;;40.25;28.50;;;;;7.92;100.00;98381.22;4841025;28;104191;-69
2023/03/21 02:10:43;;;;;;;;;;;;;;;;;;;;;
2023/03/21 02:13:25;;;;;;;;;19.00;17.00;;;;;8.01;100.00;98374.69;4847921;28;104768;-68
2023/03/21 02:16:30;;;;;;;;;15.25;12.50;;;;;8.06;100.00;98371.41;4852339;28;101973;-69
2023/03/21 02:19:27;;;;;;;;;9.25;8.00;;;;;8.07;100.00;98371.25;4846888;28;107643;-68
2023/03/21 02:22:57;;;;;;;;;9.00;7.75;;;;;8.09;100.00;98365.69;4845439;28;103463;-69
2023/03/21 02:26:13;;;;;;;;;6.50;6.25;;;;;8.09;100.00;98357.59;4845310;28;102133;-68
2023/03/21 02:29:33;;;;;;;;;9.25;9.00;;;;;8.11;100.00;98362.75;4868203;28;102249;-68
2023/03/21 02:32:11;;;;;;;;;4.50;4.25;;;;;8.12;100.00;98365.28;4862546;28;108066;-68
2023/03/21 02:35:34;;;;;;;;;3.75;3.75;;;;;8.10;100.00;98364.66;4865294;28;102722;-68
2023/03/21 02:38:18;;;;;;;;;3.50;3.50;;;;;8.11;100.00;98365.47;4886599;28;102136;-68
2023/03/21 02:40:58;;;;;;;;;6.00;4.25;;;;;8.10;100.00;98366.50;4894261;28;102169;-69
2023/03/21 02:43:38;;;;;;;;;7.50;7.50;;;;;8.07;100.00;98363.16;4896067;28;104100;-69
2023/03/21 02:46:17;;;;;;;;;5.25;3.50;;;;;8.06;100.00;98360.66;4894101;28;103076;-69
2023/03/21 02:49:12;;;;;;;;;7.25;7.25;;;;;8.06;100.00;98366.03;4883465;28;102477;-69
2023/03/21 02:51:42;;;;;;;;;8.75;8.50;;;;;8.02;100.00;98368.28;4878016;28;102136;-69
2023/03/21 02:54:15;;;;;;;;;8.25;8.25;;;;;8.01;100.00;98368.50;4893687;28;109319;-69
2023/03/21 02:57:03;;;;;;;;;11.25;9.50;;;;;7.96;100.00;98369.06;4897024;28;102188;-69
2023/03/21 02:59:32;;;;;;;;;10.00;9.25;;;;;7.97;100.00;98372.59;4896411;28;102379;-69
2023/03/21 03:02:04;;;;;;;;;10.50;9.00;;;;;7.97;100.00;98376.09;4901607;28;105218;-69
2023/03/21 03:04:30;;;;;;;;;10.50;10.25;;;;;7.97;100.00;98375.28;4898742;28;104095;-69
2023/03/21 03:06:58;;;;;;;;;9.75;9.75;;;;;7.96;100.00;98376.31;4905122;28;102137;-69
2023/03/21 03:09:50;;;;;;;;;12.50;10.50;;;;;7.95;100.00;98370.09;4907588;28;101880;-69
2023/03/21 03:12:30;;;;;;;;;7.00;7.00;;;;;7.95;100.00;98371.94;4892346;28;102017;-69
2023/03/21 03:15:27;;;;;;;;;13.75;12.25;;;;;7.93;100.00;98369.41;4900630;28;104949;-68
2023/03/21 03:18:14;;;;;;;;;11.75;10.00;;;;;7.93;100.00;98376.66;4903039;28;102275;-68
2023/03/21 03:20:58;;;;;;;;;12.25;10.25;;;;;7.92;100.00;98372.31;4902523;28;102266;-68
2023/03/21 03:23:40;;;;;;;;;14.00;11.25;;;;;7.92;100.00;98364.25;4897767;28;102942;-68
2023/03/21 03:26:25;;;;;;;;;10.00;8.75;;;;;7.86;100.00;98359.59;4889677;28;103682;-69
2023/03/21 03:28:57;;;;;;;;;11.75;11.00;;;;;7.89;100.00;98365.44;4885051;28;101985;-68
2023/03/21 03:31:30;;;;;;;;;6.75;5.75;;;;;7.88;100.00;98371.03;4890650;28;102580;-68
2023/03/21 03:34:02;;;;;;;;;8.75;8.75;;;;;7.86;100.00;98360.44;4898081;28;102734;-68
2023/03/21 03:36:34;;;;;;;;;6.50;6.50;;;;;7.87;100.00;98361.28;4895151;28;103992;-68
2023/03/21 03:39:04;;;;;;;;;10.00;8.00;;;;;7.86;100.00;98368.53;4895616;28;102341;-68
2023/03/21 03:41:37;;;;;;;;;5.50;5.50;;;;;7.77;100.00;98348.13;4884264;28;103933;-68
2023/03/21 03:44:24;;;;;;;;;5.50;5.50;;;;;7.82;100.00;98363.72;4895807;28;103904;-68
2023/03/21 03:47:00;;;;;;;;;9.00;8.00;;;;;7.86;100.00;98359.59;4888380;28;104007;-69
2023/03/21 03:49:36;;;;;;;;;4.25;3.25;;;;;7.75;100.00;98331.31;4901329;28;102297;-68
2023/03/21 03:52:16;;;;;;;;;2.50;2.50;;;;;7.85;100.00;98342.63;4898500;28;102079;-68
2023/03/21 03:54:46;;;;;;;;;4.50;4.50;;;;;7.85;100.00;98347.16;4904067;28;102237;-69
2023/03/21 03:57:14;;;;;;;;;10.00;9.25;;;;;7.83;100.00;98350.06;4890287;28;109259;-69
2023/03/21 03:59:43;;;;;;;;;10.00;8.50;;;;;7.82;100.00;98358.31;4886556;28;103303;-68
2023/03/21 04:02:11;;;;;;;;;6.00;4.50;;;;;7.82;100.00;98364.53;4901313;28;102147;-69
2023/03/21 04:04:40;;;;;;;;;3.75;3.00;;;;;7.83;100.00;98368.91;4894044;28;102511;-69
2023/03/21 04:07:07;;;;;;;;;6.00;5.25;;;;;7.75;100.00;98352.84;4896632;28;104207;-69
2023/03/21 04:09:35;;;;;;;;;6.50;5.75;;;;;7.83;100.00;98373.47;4900582;28;102342;-69
2023/03/21 04:12:11;;;;;;;;;3.00;3.00;;;;;7.82;100.00;98364.53;4896725;28;102462;-68
2023/03/21 04:14:39;;;;;;;;;5.50;4.25;;;;;7.83;100.00;98360.84;4899398;28;102434;-69
2023/03/21 04:17:13;;;;;;;;;6.50;6.25;;;;;7.84;100.00;98362.47;4893988;28;108757;-70
2023/03/21 04:19:40;;;;;;;;;9.25;9.00;;;;;7.83;100.00;98366.22;4894287;28;102267;-69
2023/03/21 04:22:07;;;;;;;;;10.50;9.00;;;;;7.76;100.00;98354.53;4895074;28;102025;-69
2023/03/21 04:24:36;;;;;;;;;12.00;11.00;;;;;7.82;100.00;98369.09;4901456;28;102028;-69
2023/03/21 04:27:04;;;;;;;;;9.75;8.25;;;;;7.80;100.00;98371.97;4893930;28;104057;-69
2023/03/21 04:29:32;;;;;;;;;7.25;7.00;;;;;7.79;100.00;98367.59;4907880;28;103244;-69
2023/03/21 04:32:00;;;;;;;;;9.00;8.25;;;;;7.81;100.00;98367.41;4922704;28;102423;-69
2023/03/21 04:34:27;;;;;;;;;8.50;7.00;;;;;7.80;100.00;98365.75;4905049;28;102526;-68
2023/03/21 04:36:55;;;;;;;;;7.25;7.00;;;;;7.82;100.00;98366.41;4905178;28;104565;-68
2023/03/21 04:39:23;;;;;;;;;8.00;7.00;;;;;7.82;100.00;98366.41;4901350;28;102303;-68
2023/03/21 04:41:50;;;;;;;;;2.00;2.00;;;;;7.79;100.00;98362.22;4900201;28;102463;-69
2023/03/21 04:44:17;;;;;;;;;4.00;3.50;;;;;7.82;100.00;98369.09;4896927;28;102299;-70
2023/03/21 04:46:44;;;;;;;;;12.75;8.75;;;;;7.81;100.00;98362.88;4901712;28;104484;-69
2023/03/21 04:49:11;;;;;;;;;12.00;10.00;;;;;7.80;100.00;98363.88;4901675;28;102491;-70
2023/03/21 04:51:39;;;;;;;;;8.50;7.00;;;;;7.82;100.00;98363.72;4897883;28;104315;-69
2023/03/21 04:54:06;;;;;;;;;10.00;10.00;;;;;7.82;100.00;98364.53;4898127;28;102398;-69
2023/03/21 04:56:34;;;;;;;;;8.75;8.00;;;;;7.83;100.00;98365.38;4893782;28;103823;-69
2023/03/21 04:59:09;;;;;;;;;8.00;8.00;;;;;7.82;100.00;98359.16;4894891;28;102011;-69
2023/03/21 05:01:36;;;;;;;;;8.50;8.25;;;;;7.81;100.00;98359.34;4898261;28;102521;-69
2023/03/21 05:04:04;;;;;;;;;7.50;6.50;;;;;7.67;100.00;98339.50;4895587;28;102789;-70
2023/03/21 05:06:31;;;;;;;;;8.25;6.75;;;;;7.80;100.00;98363.88;4898226;28;104281;-69
2023/03/21 05:09:00;;;;;;;;;4.00;3.75;;;;;7.80;100.00;98358.50;4887145;28;103788;-70
2023/03/21 05:11:29;;;;;;;;;8.25;7.25;;;;;7.81;100.00;98368.25;4897282;28;102283;-69
2023/03/21 05:13:59;;;;;;;;;5.00;4.75;;;;;7.82;100.00;98369.94;4901178;28;102193;-68
2023/03/21 05:16:29;;;;;;;;;8.25;8.00;;;;;7.82;100.00;98364.53;4899207;28;103941;-71
2023/03/21 05:19:03;;;;;;;;;9.00;8.00;;;;;7.85;100.00;98364.16;4899105;28;102477;-69
2023/03/21 05:21:40;;;;;;;;;3.50;3.50;;;;;7.90;100.00;98374.34;4895064;28;102259;-69
2023/03/21 05:24:12;;;;;;;;;5.50;3.25;;;;;7.91;100.00;98374.19;4896532;28;102253;-69
2023/03/21 05:26:41;;;;;;;;;4.00;4.00;;;;;7.95;100.00;98374.63;4899278;28;110809;-69
2023/03/21 05:29:10;;;;;;;;;4.75;4.50;;;;;7.91;100.00;98362.56;4901213;28;102330;-68
2023/03/21 05:31:37;;;;;;;;;4.50;3.75;;;;;8.02;100.00;98373.66;4893323;28;103212;-68
2023/03/21 05:34:04;;;;;;;;;4.00;3.25;;;;;8.05;100.00;98380.53;4899354;28;110560;-68
2023/03/21 05:36:34;;;;;;;;;9.00;8.75;;;;;8.05;100.00;98367.91;4898830;28;104204;-68
2023/03/21 05:39:02;;;;;;;;;8.25;7.75;;;;;8.07;100.00;98365.00;4893843;28;102234;-70
2023/03/21 05:41:29;;;;;;;;;12.00;10.50;;;;;8.08;100.00;98370.22;4894935;28;104140;-69
2023/03/21 05:43:56;;;;;;;;;12.00;12.00;;;;;8.08;100.00;98370.22;4893701;28;102443;-69
2023/03/21 05:46:23;;;;;;;;;10.25;10.25;;;;;8.09;100.00;98379.13;4898242;28;103159;-70
2023/03/21 05:48:50;;;;;;;;;11.50;11.50;;;;;8.07;100.00;98384.69;4892776;28;102024;-69
2023/03/21 05:51:18;;;;;;;;;10.00;6.00;;;;;8.07;100.00;98387.41;4905383;28;102451;-69
2023/03/21 05:53:45;;;;;;;;;7.50;6.25;;;;;8.10;100.00;98388.88;4904586;28;103049;-70
2023/03/21 05:56:12;;;;;;;;;8.00;8.00;;;;;8.17;100.00;98380.88;4906481;28;104016;-70
2023/03/21 05:58:39;;;;;;;;;7.50;7.25;;;;;8.29;100.00;98387.41;4901146;28;102707;-70
2023/03/21 06:01:06;;;;;;;;;11.00;11.00;;;;;8.44;100.00;98385.53;4902630;28;102384;-70
2023/03/21 06:03:33;;;;;;;;;8.25;5.25;;;;;8.54;100.00;98379.81;4897291;28;102102;-70
2023/03/21 06:06:02;;;;;;;;;13.50;9.50;;;;;8.52;100.00;98378.16;4883729;28;103683;-69
2023/03/21 06:08:29;;;;;;;;;14.00;11.00;;;;;8.51;100.00;98386.41;4897658;28;102805;-69
2023/03/21 06:10:56;;;;;;;;;10.75;9.00;;;;;8.51;100.00;98381.03;4893075;28;102387;-69
2023/03/21 06:13:24;;;;;;;;;17.25;12.75;;;;;8.46;100.00;98378.09;4906413;28;102465;-68
2023/03/21 06:15:51;;;;;;;;;10.75;8.25;;;;;8.50;100.00;98384.78;4898989;28;103993;-68
2023/03/21 06:18:18;;;;;;;;;14.50;11.75;;;;;8.50;100.00;98379.38;4897187;28;102552;-68
2023/03/21 06:20:45;;;;;;;;;18.75;16.00;;;;;8.42;100.00;98384.91;4895463;28;101811;-68
2023/03/21 06:23:12;;;;;;;;;8.50;6.00;;;;;8.48;100.00;98378.72;4898539;28;101901;-69
2023/03/21 06:25:39;;;;;;;;;9.50;9.25;;;;;8.51;100.00;98376.47;4898841;28;111844;-69
2023/03/21 06:28:06;;;;;;;;;9.25;8.00;;;;;8.55;100.00;98387.72;4896074;28;102373;-68
2023/03/21 06:30:33;;;;;;;;;7.50;7.00;;;;;8.60;100.00;98393.34;4898887;28;102373;-68
2023/03/21 06:33:00;;;;;;;;;6.75;3.25;;;;;8.63;100.00;98389.44;4905039;28;102079;-68
2023/03/21 06:35:27;;;;;;;;;3.50;3.00;;;;;8.73;100.00;98382.69;4907259;28;103178;-68
2023/03/21 06:37:57;;;;;;;;;5.00;4.25;;;;;8.76;100.00;98386.84;4901828;28;105138;-68
2023/03/21 06:40:24;;;;;;;;;8.00;7.50;;;;;8.81;100.00;98387.94;4899130;28;103393;-69
2023/03/21 06:42:51;;;;;;;;;4.75;4.00;;;;;8.84;100.00;98392.94;4901069;28;102551;-69
2023/03/21 06:45:18;;;;;;;;;4.25;4.25;;;;;8.89;100.00;98395.03;4897561;28;103735;-69
2023/03/21 06:47:45;;;;;;;;;4.25;3.00;;;;;8.92;100.00;98392.78;4894377;28;102283;-68
2023/03/21 06:50:13;;;;;;;;;12.00;11.00;;;;;8.94;100.00;98388.03;4899205;28;101969;-68
2023/03/21 06:52:40;;;;;;;;;4.25;4.00;;;;;8.99;100.00;98394.72;4900876;28;102360;-68
2023/03/21 06:55:08;;;;;;;;;8.25;7.75;;;;;9.00;100.00;98402.63;4896274;28;103941;-68
2023/03/21 06:57:35;;;;;;;;;4.00;2.75;;;;;8.99;100.00;98398.25;4896033;28;103212;-69
2023/03/21 07:00:04;;;;;;;;;4.25;3.75;;;;;9.01;99.94;98408.81;4887242;28;102614;-69
2023/03/21 07:02:31;;;;;;;;;8.75;7.75;;;;;8.95;99.85;98405.91;4899657;28;102317;-69
2023/03/21 07:04:58;;;;;;;;;20.00;16.00;;;;;8.82;100.00;98405.78;4895726;28;104257;-69
2023/03/21 07:07:27;;;;;;;;;10.25;9.50;;;;;8.88;100.00;98399.59;4896552;28;102399;-69
2023/03/21 07:09:55;;;;;;;;;9.00;8.00;;;;;8.88;100.00;98409.53;4892032;28;102844;-69
2023/03/21 07:12:22;;;;;;;;;25.00;20.00;;;;;8.65;100.00;98407.06;4897657;28;102355;-69
2023/03/21 07:14:50;;;;;;;;;37.75;30.50;;;;;8.47;100.00;98410.22;4906580;28;109722;-69
2023/03/21 07:17:17;;;;;;;;;25.00;22.50;;;;;8.61;100.00;98413.88;4905711;28;102473;-69
2023/03/21 07:19:44;;;;;;;;;22.50;19.75;;;;;8.57;100.00;98412.59;4897996;28;102408;-69
2023/03/21 07:22:11;;;;;;;;;24.25;21.75;;;;;8.58;100.00;98418.81;4903340;28;102884;-68
2023/03/21 07:24:38;;;;;;;;;25.75;22.75;;;;;8.48;100.00;98419.13;4902504;28;104218;-67
2023/03/21 07:27:04;;;;;;;;;30.00;25.25;;;;;8.46;100.00;98411.28;4903765;28;102396;-68
2023/03/21 07:29:32;;;;;;;;;23.25;19.50;;;;;8.47;100.00;98422.84;4900883;28;102140;-68
2023/03/21 07:31:59;;;;;;;;;19.75;19.00;;;;;8.42;100.00;98417.22;4900688;28;102304;-69
2023/03/21 07:34:30;;;;;;;;;43.00;34.00;;;;;8.28;100.00;98421.63;4897916;28;103816;-69
2023/03/21 07:36:57;;;;;;;;;54.75;40.75;;;;;8.11;100.00;98420.16;4893380;28;102676;-69
2023/03/21 07:39:26;;;;;;;;;46.00;37.50;;;;;8.14;100.00;98425.19;4894443;28;102576;-68
2023/03/21 07:41:55;;;;;;;;;55.00;44.50;;;;;8.10;100.00;98431.13;4895652;28;102342;-69
2023/03/21 07:44:23;;;;;;;;;54.75;41.00;;;;;8.14;100.00;98427.88;4890870;28;103963;-69
2023/03/21 07:46:50;;;;;;;;;60.25;47.25;;;;;8.02;100.00;98429.38;4891514;28;102601;-69
2023/03/21 07:49:17;;;;;;;;;67.25;48.00;;;;;8.01;100.00;98425.03;4893985;28;101936;-69
2023/03/21 07:51:44;;;;;;;;;70.00;51.75;;;;;7.92;100.00;98421.63;4897537;28;102357;-69
2023/03/21 07:54:11;;;;;;;;;63.50;45.75;;;;;7.99;100.00;98413.59;4897846;28;107559;-69
2023/03/21 07:56:38;;;;;;;;;58.50;44.50;;;;;8.08;100.00;98434.00;4905376;28;102472;-69
2023/03/21 07:59:06;;;;;;;;;60.00;45.00;;;;;8.14;100.00;98437.81;4905900;28;102121;-69
2023/03/21 08:01:33;;;;;;;;;56.00;44.75;;;;;8.22;100.00;98435.84;4900450;28;101991;-69
2023/03/21 08:04:00;;;;;;;;;63.25;48.00;;;;;8.17;100.00;98411.31;4903131;28;103762;-69
2023/03/21 08:06:28;;;;;;;;;58.50;46.25;;;;;8.28;100.00;98428.84;4903020;28;102398;-70
2023/03/21 08:08:55;;;;;;;;;61.25;43.75;;;;;8.44;100.00;98431.31;4899081;28;102394;-69
2023/03/21 08:11:23;;;;;;;;;63.50;48.50;;;;;8.39;100.00;98436.44;4898948;28;102141;-69
2023/03/21 08:13:50;;;;;;;;;55.75;42.25;;;;;8.45;100.00;98443.78;4912720;28;103993;-69
2023/03/21 08:16:17;;;;;;;;;54.75;41.50;;;;;8.51;100.00;98434.91;4897451;28;102214;-69
2023/03/21 08:18:44;;;;;;;;;58.25;45.25;;;;;8.58;100.00;98437.69;4899133;28;102326;-69
2023/03/21 08:21:12;;;;;;;;;57.25;42.25;;;;;8.62;100.00;98437.09;4893899;28;102150;-69
2023/03/21 08:23:39;;;;;;;;;42.25;33.75;;;;;8.84;100.00;98440.63;4896338;28;103969;-68
2023/03/21 08:26:06;;;;;;;;;31.75;29.75;;;;;8.91;100.00;98447.75;4895616;28;102504;-69
2023/03/21 08:28:35;;;;;;;;;43.25;36.25;;;;;8.88;100.00;98447.28;4891639;28;102383;-69
2023/03/21 08:31:09;;;;;;;;;48.00;38.25;;;;;8.84;100.00;98446.00;4907122;28;102061;-69
2023/03/21 08:33:37;;;;;;;;;45.25;35.00;;;;;8.88;100.00;98441.91;4889040;28;103991;-69
2023/03/21 08:36:05;;;;;;;;;39.75;33.75;;;;;8.98;100.00;98444.28;4905625;28;102587;-69
2023/03/21 08:38:33;;;;;;;;;42.50;36.75;;;;;8.99;100.00;98443.25;4905622;28;102188;-69
2023/03/21 08:41:00;;;;;;;;;45.75;33.25;;;;;9.08;100.00;98452.88;4905550;28;102708;-70
2023/03/21 08:43:28;;;;;;;;;60.75;45.50;;;;;8.78;100.00;98450.31;4900695;28;103927;-68
2023/03/21 08:45:55;;;;;;;;;49.00;37.50;;;;;9.07;100.00;98453.88;4901663;28;102682;-70
2023/03/21 08:48:23;;;;;;;;;48.00;36.75;;;;;9.13;100.00;98450.41;4898429;28;102022;-68
2023/03/21 08:50:50;;;;;;;;;60.50;47.25;;;;;8.90;100.00;98453.34;4895358;28;102357;-70
2023/03/21 08:53:17;;;;;;;;;50.00;37.25;;;;;9.05;100.00;98448.69;4894157;28;103939;-68
2023/03/21 08:55:44;;;;;;;;;55.00;42.00;;;;;9.09;100.00;98451.84;4899637;28;103457;-69
2023/03/21 08:58:11;;;;;;;;;52.25;41.25;;;;;9.18;100.00;98458.78;4896126;28;102260;-68
2023/03/21 09:00:38;;;;;;;;;55.00;44.00;;;;;9.14;100.00;98465.59;4893243;28;102511;-68
2023/03/21 09:03:05;;;;;;;;;51.75;39.25;;;;;9.25;100.00;98452.38;4897101;28;103998;-69
2023/03/21 09:05:33;;;;;;;;;44.00;37.00;;;;;9.31;99.64;98450.78;4892248;28;102591;-69
2023/03/21 09:08:00;;;;;;;;;49.25;38.75;;;;;9.38;99.51;98460.56;4893444;28;104383;-68
2023/03/21 09:10:28;;;;;;;;;56.00;45.00;;;;;9.18;98.70;98462.31;4889478;28;102482;-69
2023/03/21 09:12:55;;;;;;;;;56.50;38.50;;;;;9.14;97.50;98461.00;4890906;28;104057;-69
2023/03/21 09:15:24;;;;;;;;;56.00;43.50;;;;;8.89;97.05;98460.59;4892416;28;102261;-69
2023/03/21 09:17:52;;;;;;;;;61.50;44.50;;;;;9.02;96.70;98470.66;4901372;28;102522;-70
2023/03/21 09:20:28;;;;;;;;;46.00;38.50;;;;;9.26;95.54;98461.31;4892797;28;102201;-69
2023/03/21 09:22:57;;;;;;;;;58.00;44.25;;;;;9.07;94.78;98461.97;4903237;28;104033;-69
2023/03/21 09:25:24;;;;;;;;;56.25;42.00;;;;;9.27;96.08;98469.22;4899116;28;102170;-69
2023/03/21 09:27:52;;;;;;;;;47.25;36.50;;;;;9.42;96.01;98471.78;4900229;28;102521;-69
2023/03/21 09:30:22;;;;;;;;;62.25;47.00;;;;;9.22;94.27;98466.28;4894659;28;102268;-68
2023/03/21 09:32:54;;;;;;;;;56.50;43.75;;;;;9.24;96.45;98476.84;4898339;28;104044;-69
2023/03/21 09:35:23;;;;;;;;;60.25;43.00;;;;;9.10;92.97;98483.16;4889703;28;102625;-69
2023/03/21 09:37:50;;;;;;;;;58.50;43.25;;;;;9.22;93.01;98473.53;4892333;28;102580;-69
2023/03/21 09:40:42;;;;;;;;;57.00;43.00;;;;;9.11;91.30;98469.50;4896704;28;102141;-69
2023/03/21 09:43:32;;;;;;;;;56.75;43.00;;;;;9.10;91.72;98477.75;4887943;28;104029;-68
2023/03/21 09:46:31;;;;;;;;;58.25;43.00;;;;;9.12;90.50;98479.25;4887450;28;102517;-68
2023/03/21 09:49:08;;;;;;;;;60.00;46.75;;;;;9.05;90.23;98482.94;4876857;28;102149;-69
2023/03/21 09:51:40;;;;;;;;;55.25;41.75;;;;;9.19;90.55;98479.28;4890861;28;105309;-69
2023/03/21 09:54:23;;;;;;;;;53.75;42.75;;;;;9.30;90.27;98479.59;4881493;28;104012;-67
2023/03/21 09:56:55;;;;;;;;;53.75;42.25;;;;;9.30;91.45;98484.16;4888622;28;102468;-69
2023/03/21 09:59:42;;;;;;;;;63.50;46.75;;;;;9.10;90.46;98472.38;4900340;28;102446;-69
2023/03/21 10:02:35;;;;;;;;;57.50;44.75;;;;;9.15;90.94;98475.31;4897313;28;102642;-69
2023/03/21 10:05:11;;;;;;;;;57.50;44.50;;;;;9.29;91.59;98480.63;4900473;28;108896;-69
2023/03/21 10:07:43;;;;;;;;;66.00;48.75;;;;;9.17;90.35;98475.97;4901678;28;102405;-69
2023/03/21 10:10:27;;;;;;;;;62.25;48.00;;;;;9.04;90.62;98475.88;4899535;28;102402;-69
2023/03/21 10:12:55;;;;;;;;;62.50;46.75;;;;;9.09;90.13;98476.13;4892329;28;102574;-69
2023/03/21 10:15:24;;;;;;;;;67.50;50.25;;;;;9.08;90.72;98471.75;4892169;28;103989;-68
2023/03/21 10:18:13;;;;;;;;;58.75;44.25;;;;;9.30;90.63;98467.97;4898543;28;102938;-68
2023/03/21 10:20:41;;;;;;;;;57.50;46.25;;;;;9.25;88.47;98483.91;4895449;28;102313;-68
2023/03/21 10:23:15;;;;;;;;;53.50;42.50;;;;;9.22;87.10;98473.53;4895281;28;102489;-69
2023/03/21 10:25:53;;;;;;;;;54.00;41.00;;;;;9.39;87.41;98478.44;4893160;28;108172;-69
2023/03/21 10:28:27;;;;;;;;;55.75;44.25;;;;;9.26;85.38;98483.72;4888807;28;102525;-69
2023/03/21 10:30:59;;;;;;;;;51.50;37.50;;;;;9.28;85.74;98480.81;4889671;28;102110;-69
2023/03/21 10:33:33;;;;;;;;;53.00;41.75;;;;;9.17;85.79;98462.47;4894213;28;102386;-68
2023/03/21 10:36:16;;;;;;;;;49.75;39.75;;;;;9.21;86.09;98466.47;4894225;28;103997;-69
2023/03/21 10:38:47;;;;;;;;;55.00;44.25;;;;;9.35;85.57;98485.25;4900089;28;102265;-69
2023/03/21 10:41:14;;;;;;;;;54.50;42.75;;;;;9.42;85.72;98482.59;4901363;28;102400;-68
2023/03/21 10:43:44;;;;;;;;;56.50;41.00;;;;;9.45;85.20;98481.38;4892807;28;102382;-69
2023/03/21 10:46:20;;;;;;;;;52.00;42.00;;;;;9.51;84.57;98480.56;4904075;28;104125;-69
2023/03/21 10:48:51;;;;;;;;;49.50;40.25;;;;;9.60;83.63;98482.94;4902374;28;104282;-69
2023/03/21 10:51:21;;;;;;;;;51.75;38.75;;;;;9.69;82.46;98481.75;4897999;28;102270;-68
2023/03/21 10:53:52;;;;;;;;;50.00;37.50;;;;;9.67;84.08;98489.22;4901896;28;102434;-68
2023/03/21 10:56:26;;;;;;;;;49.25;38.50;;;;;9.61;83.41;98491.88;4893788;28;103814;-69
2023/03/21 10:58:57;;;;;;;;;55.50;37.75;;;;;9.73;81.82;98491.09;4889423;28;103058;-69
2023/03/21 11:01:35;;;;;;;;;55.50;40.75;;;;;9.52;82.36;98484.94;4893906;28;102622;-69
2023/03/21 11:04:16;;;;;;;;;50.50;39.75;;;;;9.47;83.30;98488.22;4895939;28;103015;-68
2023/03/21 11:07:08;;;;;;;;;53.25;42.75;;;;;9.55;83.34;98479.97;4899546;28;108791;-69
2023/03/21 11:09:48;;;;;;;;;60.50;42.75;;;;;9.52;82.22;98482.25;4894095;28;103252;-69
2023/03/21 11:12:29;;;;;;;;;50.75;39.50;;;;;9.70;82.71;98479.88;4878283;28;102940;-69
2023/03/21 11:14:56;;;;;;;;;54.50;40.00;;;;;9.99;81.76;98484.22;4896500;28;102043;-69
2023/03/21 11:17:28;;;;;;;;;55.75;44.25;;;;;9.92;82.27;98472.50;4900301;28;104108;-69
2023/03/21 11:20:04;;;;;;;;;52.00;41.25;;;;;9.86;80.09;98477.69;4897473;28;102116;-67
2023/03/21 11:22:41;;;;;;;;;56.25;42.00;;;;;9.84;79.78;98471.66;4904458;28;102273;-68
2023/03/21 11:25:19;;;;;;;;;51.50;41.50;;;;;9.61;80.62;98465.72;4900000;28;102444;-69
2023/03/21 11:27:53;;;;;;;;;56.00;40.50;;;;;9.60;80.21;98469.44;4904069;28;108516;-68
2023/03/21 11:30:26;;;;;;;;;50.50;39.75;;;;;9.40;81.33;98471.19;4896485;28;102430;-69
2023/03/21 11:32:56;;;;;;;;;52.25;39.75;;;;;9.32;82.50;98474.03;4900007;28;102354;-69
2023/03/21 11:35:38;;;;;;;;;52.00;39.75;;;;;9.47;83.14;98474.75;4901373;28;102322;-69
2023/03/21 11:38:24;;;;;;;;;50.50;38.00;;;;;9.67;82.57;98470.31;4899154;28;103753;-68
2023/03/21 11:40:55;;;;;;;;;51.50;40.00;;;;;9.80;82.62;98467.69;4888836;28;102433;-68
2023/03/21 11:43:30;;;;;;;;;54.00;41.00;;;;;9.79;81.88;98455.22;4888087;28;102541;-69